createdAt,value
2018-09-03T00:02:28.687Z,60.61
2018-09-03T00:04:56.901Z,61.92
2018-09-03T00:07:25.105Z,61.77
2018-09-03T00:09:53.322Z,60.83
2018-09-03T00:12:21.525Z,60.84
2018-09-03T00:14:49.722Z,61.05
2018-09-03T00:17:17.968Z,60.98
2018-09-03T00:19:46.171Z,61.85
2018-09-03T00:22:14.382Z,61.75
2018-09-03T00:24:42.591Z,61.24
2018-09-03T00:27:10.810Z,60.97
2018-09-03T00:29:39.014Z,61.93
2018-09-03T00:32:12.821Z,62.58
2018-09-03T00:35:46.175Z,62.11
2018-09-03T00:38:19.548Z,63.00
2018-09-03T00:40:53.139Z,62.23
2018-09-03T00:43:26.577Z,63.10
2018-09-03T00:46:00.166Z,63.16
2018-09-03T00:48:28.378Z,63.06
2018-09-03T00:50:56.583Z,62.49
2018-09-03T00:53:25.058Z,62.79
2018-09-03T00:55:53.253Z,63.90
2018-09-03T00:58:21.523Z,63.60
2018-09-03T01:00:49.738Z,63.00
2018-09-03T01:03:17.941Z,63.16
2018-09-03T01:05:46.149Z,62.96
2018-09-03T01:08:14.349Z,63.46
2018-09-03T01:10:42.559Z,64.57
2018-09-03T01:13:10.772Z,64.12
2018-09-03T01:15:38.985Z,64.78
2018-09-03T01:18:07.193Z,64.13
2018-09-03T01:20:35.404Z,65.70
2018-09-03T01:23:03.605Z,65.25
2018-09-03T01:25:31.815Z,64.49
2018-09-03T01:28:00.021Z,64.71
2018-09-03T01:30:28.221Z,65.34
2018-09-03T01:32:56.430Z,65.18
2018-09-03T01:35:24.629Z,65.53
2018-09-03T01:37:52.837Z,65.33
2018-09-03T01:40:21.058Z,65.27
2018-09-03T01:42:49.275Z,65.38
2018-09-03T01:45:17.489Z,65.56
2018-09-03T01:47:45.694Z,65.89
2018-09-03T01:50:13.900Z,65.83
2018-09-03T01:52:42.089Z,65.86
2018-09-03T01:55:10.286Z,65.21
2018-09-03T01:57:38.498Z,66.47
2018-09-03T02:00:06.842Z,65.20
2018-09-03T02:02:35.045Z,66.35
2018-09-03T02:05:03.293Z,65.73
2018-09-03T02:07:31.525Z,65.90
2018-09-03T02:09:59.722Z,66.00
2018-09-03T02:12:27.930Z,67.72
2018-09-03T02:14:56.138Z,67.48
2018-09-03T02:17:24.365Z,66.69
2018-09-03T02:19:52.574Z,67.55
2018-09-03T02:22:20.777Z,67.66
2018-09-03T02:24:48.987Z,66.57
2018-09-03T02:27:17.181Z,66.22
2018-09-03T02:29:45.385Z,67.14
2018-09-03T02:32:13.589Z,67.40
2018-09-03T02:34:41.798Z,67.67
2018-09-03T02:37:10.010Z,67.99
2018-09-03T02:39:38.214Z,68.58
2018-09-03T02:42:06.438Z,69.35
2018-09-03T02:44:34.634Z,70.28
2018-09-03T02:47:03.075Z,68.49
2018-09-03T02:49:31.278Z,68.34
2018-09-03T02:51:59.493Z,68.45
2018-09-03T02:54:27.697Z,70.09
2018-09-03T02:56:55.918Z,70.52
2018-09-03T02:59:24.131Z,70.29
2018-09-03T03:01:52.346Z,69.09
2018-09-03T03:04:20.557Z,70.32
2018-09-03T03:06:48.766Z,69.67
2018-09-03T03:09:16.966Z,70.12
2018-09-03T03:11:45.282Z,70.51
2018-09-03T03:14:13.403Z,69.98
2018-09-03T03:16:41.605Z,70.55
2018-09-03T03:19:09.838Z,69.76
2018-09-03T03:21:38.054Z,68.79
2018-09-03T03:24:06.320Z,69.36
2018-09-03T03:26:34.517Z,70.92
2018-09-03T03:29:02.724Z,70.47
2018-09-03T03:31:30.918Z,71.46
2018-09-03T03:33:59.155Z,70.12
2018-09-03T03:36:27.359Z,70.19
2018-09-03T03:38:55.657Z,70.14
2018-09-03T03:41:23.865Z,69.53
2018-09-03T03:43:52.115Z,69.88
2018-09-03T03:46:20.317Z,69.80
2018-09-03T03:48:48.562Z,70.25
2018-09-03T03:51:17.182Z,71.48
2018-09-03T03:53:45.378Z,70.55
2018-09-03T03:56:13.594Z,71.96
2018-09-03T03:58:41.841Z,71.47
2018-09-03T04:01:10.059Z,70.29
2018-09-03T04:03:38.319Z,69.79
2018-09-03T04:06:06.630Z,70.36
2018-09-03T04:08:34.833Z,69.77
2018-09-03T04:11:03.054Z,68.81
2018-09-03T04:13:31.276Z,68.85
2018-09-03T04:15:59.499Z,69.98
2018-09-03T04:18:27.690Z,70.00
2018-09-03T04:20:56.257Z,68.75
2018-09-03T04:23:24.583Z,69.78
2018-09-03T04:25:52.729Z,69.71
2018-09-03T04:28:20.947Z,70.51
2018-09-03T04:30:49.186Z,70.40
2018-09-03T04:33:17.390Z,70.52
2018-09-03T04:35:45.625Z,70.12
2018-09-03T04:38:13.842Z,69.47
2018-09-03T04:40:42.065Z,70.09
2018-09-03T04:43:10.282Z,70.15
2018-09-03T04:45:38.549Z,70.02
2018-09-03T04:48:06.889Z,69.99
2018-09-03T04:50:34.982Z,69.68
2018-09-03T04:53:03.226Z,70.39
2018-09-03T04:55:31.430Z,69.37
2018-09-03T04:57:59.654Z,69.71
2018-09-03T05:00:27.854Z,69.30
2018-09-03T05:02:56.073Z,69.86
2018-09-03T05:05:24.557Z,69.53
2018-09-03T05:07:52.776Z,69.47
2018-09-03T05:10:21.085Z,69.44
2018-09-03T05:12:49.908Z,69.79
2018-09-03T05:15:18.131Z,69.65
2018-09-03T05:17:47.386Z,70.03
2018-09-03T05:20:15.644Z,70.25
2018-09-03T05:22:43.922Z,70.53
2018-09-03T05:25:12.151Z,70.66
2018-09-03T05:27:40.392Z,70.41
2018-09-03T05:30:09.781Z,71.19
2018-09-03T05:32:38.349Z,70.72
2018-09-03T05:35:07.683Z,69.53
2018-09-03T05:37:35.893Z,70.57
2018-09-03T05:40:04.185Z,70.13
2018-09-03T05:42:33.530Z,70.39
2018-09-03T05:45:02.833Z,70.61
2018-09-03T05:47:31.101Z,70.76
2018-09-03T05:49:59.309Z,70.86
2018-09-03T05:52:27.606Z,70.60
2018-09-03T05:54:56.905Z,70.53
2018-09-03T05:57:25.185Z,70.59
2018-09-03T05:59:53.483Z,69.99
2018-09-03T06:02:21.831Z,69.73
2018-09-03T06:04:50.186Z,70.72
2018-09-03T06:07:18.533Z,69.38
2018-09-03T06:09:46.753Z,70.21
2018-09-03T06:12:15.002Z,69.59
2018-09-03T06:14:44.230Z,70.13
2018-09-03T06:17:13.463Z,69.63
2018-09-03T06:19:41.662Z,70.04
2018-09-03T06:22:10.294Z,69.45
2018-09-03T06:24:38.854Z,69.57
2018-09-03T06:27:07.099Z,69.39
2018-09-03T06:29:36.333Z,69.64
2018-09-03T06:32:04.549Z,69.01
2018-09-03T06:34:32.794Z,69.74
2018-09-03T06:37:01.158Z,69.20
2018-09-03T06:39:29.379Z,68.95
2018-09-03T06:41:57.586Z,69.37
2018-09-03T06:44:25.806Z,69.28
2018-09-03T06:46:54.034Z,68.84
2018-09-03T06:49:22.342Z,69.15
2018-09-03T06:51:50.537Z,68.35
2018-09-03T06:54:18.817Z,68.17
2018-09-03T06:56:47.038Z,68.41
2018-09-03T06:59:15.261Z,69.15
2018-09-03T07:01:43.462Z,68.25
2018-09-03T07:04:11.702Z,69.14
2018-09-03T07:06:39.914Z,68.24
2018-09-03T07:09:09.324Z,68.44
2018-09-03T07:11:37.522Z,67.81
2018-09-03T07:14:05.890Z,67.30
2018-09-03T07:16:34.101Z,66.94
2018-09-03T07:19:02.358Z,66.98
2018-09-03T07:21:30.527Z,67.67
2018-09-03T07:23:58.758Z,67.33
2018-09-03T07:26:26.986Z,67.26
2018-09-03T07:28:55.228Z,67.98
2018-09-03T07:31:23.409Z,67.67
2018-09-03T07:33:51.630Z,67.99
2018-09-03T07:36:19.838Z,66.97
2018-09-03T07:38:48.042Z,68.18
2018-09-03T07:41:16.300Z,67.86
2018-09-03T07:43:44.530Z,67.24
2018-09-03T07:46:12.742Z,68.85
2018-09-03T07:48:40.955Z,68.38
2018-09-03T07:51:09.263Z,67.88
2018-09-03T07:53:37.382Z,68.79
2018-09-03T07:56:05.654Z,67.45
2018-09-03T07:58:33.873Z,68.31
2018-09-03T08:01:02.102Z,67.80
2018-09-03T08:03:30.293Z,67.38
2018-09-03T08:05:58.502Z,67.61
2018-09-03T08:08:26.705Z,67.43
2018-09-03T08:10:54.920Z,66.52
2018-09-03T08:13:28.481Z,66.08
2018-09-03T08:15:56.695Z,66.45
2018-09-03T08:18:24.910Z,65.46
2018-09-03T08:20:53.130Z,66.83
2018-09-03T08:23:21.334Z,65.87
2018-09-03T08:25:49.543Z,65.82
2018-09-03T08:28:17.773Z,65.89
2018-09-03T08:30:45.989Z,65.95
2018-09-03T08:33:14.220Z,65.48
2018-09-03T08:35:42.451Z,66.11
2018-09-03T08:38:10.717Z,64.88
2018-09-03T08:40:38.934Z,64.70
2018-09-03T08:43:07.149Z,65.20
2018-09-03T08:45:35.364Z,65.24
2018-09-03T08:48:03.730Z,65.02
2018-09-03T08:50:31.930Z,64.84
2018-09-03T08:53:00.214Z,65.24
2018-09-03T08:55:28.401Z,64.61
2018-09-03T08:57:56.618Z,65.25
2018-09-03T09:00:25.106Z,65.83
2018-09-03T09:02:53.326Z,65.40
2018-09-03T09:05:21.542Z,65.00
2018-09-03T09:07:49.758Z,65.14
2018-09-03T09:10:17.978Z,65.27
2018-09-03T09:12:46.194Z,64.75
2018-09-03T09:15:14.405Z,64.12
2018-09-03T09:17:42.690Z,64.54
2018-09-03T09:20:10.840Z,64.53
2018-09-03T09:22:39.059Z,64.83
2018-09-03T09:25:07.313Z,64.67
2018-09-03T09:27:35.499Z,64.26
2018-09-03T09:30:04.241Z,64.78
2018-09-03T09:32:32.446Z,64.06
2018-09-03T09:35:06.175Z,62.68
2018-09-03T09:37:34.350Z,62.82
2018-09-03T09:40:02.586Z,63.59
2018-09-03T09:42:30.791Z,64.17
2018-09-03T09:44:59.046Z,64.14
2018-09-03T09:47:27.333Z,63.14
2018-09-03T09:49:55.566Z,62.24
2018-09-03T09:52:23.774Z,62.03
2018-09-03T09:54:52.061Z,62.29
2018-09-03T09:57:20.241Z,60.98
2018-09-03T09:59:48.478Z,60.78
2018-09-03T10:02:16.714Z,61.21
2018-09-03T10:04:44.934Z,61.50
2018-09-03T10:07:13.153Z,61.95
2018-09-03T10:09:41.363Z,61.26
2018-09-03T10:12:09.595Z,61.36
2018-09-03T10:14:37.820Z,61.04
2018-09-03T10:17:06.045Z,62.01
2018-09-03T10:19:34.236Z,61.94
2018-09-03T10:22:02.485Z,61.64
2018-09-03T10:24:30.702Z,60.99
2018-09-03T10:26:58.908Z,60.57
2018-09-03T10:29:27.122Z,60.23
2018-09-03T10:31:55.332Z,60.93
2018-09-03T10:34:23.553Z,61.36
2018-09-03T10:36:51.766Z,60.35
2018-09-03T10:39:20.034Z,61.25
2018-09-03T10:41:48.238Z,60.37
2018-09-03T10:44:16.453Z,60.87
2018-09-03T10:46:45.403Z,61.19
2018-09-03T10:49:13.627Z,60.82
2018-09-03T10:51:41.832Z,60.28
2018-09-03T10:54:10.045Z,60.33
2018-09-03T10:56:38.266Z,60.38
2018-09-03T10:59:06.612Z,59.80
2018-09-03T11:01:34.814Z,60.57
2018-09-03T11:04:03.045Z,59.77
2018-09-03T11:06:31.395Z,60.20
2018-09-03T11:08:59.635Z,59.58
2018-09-03T11:11:27.837Z,60.25
2018-09-03T11:13:56.054Z,59.02
2018-09-03T11:16:24.354Z,59.22
2018-09-03T11:18:52.650Z,58.81
2018-09-03T11:21:20.960Z,59.72
2018-09-03T11:23:49.115Z,59.39
2018-09-03T11:26:17.318Z,58.95
2018-09-03T11:28:45.604Z,59.22
2018-09-03T11:31:13.778Z,57.90
2018-09-03T11:33:41.973Z,59.81
2018-09-03T11:36:10.187Z,59.07
2018-09-03T11:38:38.414Z,58.73
2018-09-03T11:41:06.662Z,58.07
2018-09-03T11:43:34.866Z,57.93
2018-09-03T11:46:03.169Z,58.15
2018-09-03T11:48:31.373Z,57.64
2018-09-03T11:50:59.606Z,57.96
2018-09-03T11:53:27.809Z,58.45
2018-09-03T11:55:56.028Z,58.34
2018-09-03T11:58:24.270Z,57.77
2018-09-03T12:00:56.760Z,58.93
2018-09-03T12:03:24.978Z,57.55
2018-09-03T12:05:53.198Z,57.18
2018-09-03T12:08:21.451Z,58.58
2018-09-03T12:10:49.662Z,57.41
2018-09-03T12:13:17.872Z,57.90
2018-09-03T12:16:20.294Z,56.40
2018-09-03T12:18:48.566Z,56.97
2018-09-03T12:21:17.107Z,56.79
2018-09-03T12:23:45.436Z,57.80
2018-09-03T12:26:13.666Z,57.99
2018-09-03T12:28:41.887Z,56.44
2018-09-03T12:31:10.130Z,56.94
2018-09-03T12:33:38.350Z,56.82
2018-09-03T12:36:06.638Z,56.13
2018-09-03T12:38:35.190Z,56.11
2018-09-03T12:41:03.567Z,57.23
2018-09-03T12:43:31.822Z,57.07
2018-09-03T12:46:01.250Z,57.28
2018-09-03T12:48:30.273Z,57.46
2018-09-03T12:50:58.961Z,58.25
2018-09-03T12:53:28.402Z,57.97
2018-09-03T12:55:56.616Z,57.12
2018-09-03T12:58:24.934Z,57.00
2018-09-03T13:00:53.230Z,56.99
2018-09-03T13:03:21.423Z,58.16
2018-09-03T13:05:49.811Z,57.32
2018-09-03T13:08:18.058Z,56.96
2018-09-03T13:10:46.358Z,58.46
2018-09-03T13:13:14.639Z,57.79
2018-09-03T13:15:42.871Z,56.88
2018-09-03T13:18:11.084Z,57.40
2018-09-03T13:20:39.293Z,57.76
2018-09-03T13:23:07.598Z,57.10
2018-09-03T13:25:35.814Z,57.91
2018-09-03T13:28:04.030Z,56.97
2018-09-03T13:30:32.346Z,56.97
2018-09-03T13:33:00.597Z,57.41
2018-09-03T13:35:28.877Z,57.84
2018-09-03T13:37:57.097Z,58.23
2018-09-03T13:40:25.338Z,57.11
2018-09-03T13:42:53.578Z,58.18
2018-09-03T13:45:21.789Z,57.88
2018-09-03T13:47:50.030Z,57.33
2018-09-03T13:50:18.266Z,57.29
2018-09-03T13:52:46.474Z,57.37
2018-09-03T13:55:14.750Z,57.63
2018-09-03T13:57:42.998Z,57.51
2018-09-03T14:00:12.205Z,58.69
2018-09-03T14:02:40.481Z,59.40
2018-09-03T14:05:08.747Z,58.69
2018-09-03T14:07:36.984Z,58.35
2018-09-03T14:10:05.373Z,59.06
2018-09-03T14:12:33.526Z,59.31
2018-09-03T14:15:01.783Z,59.15
2018-09-03T14:17:30.054Z,59.70
2018-09-03T14:19:58.835Z,59.71
2018-09-03T14:22:26.989Z,58.73
2018-09-03T14:24:55.315Z,58.63
2018-09-03T14:27:23.533Z,58.83
2018-09-03T14:29:51.840Z,58.60
2018-09-03T14:32:20.072Z,58.98
2018-09-03T14:34:48.315Z,59.02
2018-09-03T14:37:16.573Z,58.84
2018-09-03T14:39:44.793Z,58.76
2018-09-03T14:42:13.009Z,59.44
2018-09-03T14:44:41.216Z,59.29
2018-09-03T14:47:09.575Z,59.10
2018-09-03T14:49:37.831Z,60.11
2018-09-03T14:52:06.082Z,59.88
2018-09-03T14:54:36.410Z,59.18
2018-09-03T14:57:04.686Z,60.21
2018-09-03T14:59:32.915Z,59.33
2018-09-03T15:02:01.195Z,60.25
2018-09-03T15:04:29.449Z,59.82
2018-09-03T15:06:57.666Z,60.24
2018-09-03T15:09:25.916Z,60.32
2018-09-03T15:11:54.138Z,59.62
2018-09-03T15:14:22.369Z,60.24
2018-09-03T15:16:50.593Z,59.39
2018-09-03T15:19:18.817Z,60.35
2018-09-03T15:21:47.044Z,60.10
2018-09-03T15:24:15.273Z,60.08
2018-09-03T15:26:43.640Z,59.79
2018-09-03T15:29:11.733Z,59.64
2018-09-03T15:31:39.940Z,60.44
2018-09-03T15:34:08.149Z,60.87
2018-09-03T15:36:36.460Z,60.88
2018-09-03T15:39:08.632Z,61.15
2018-09-03T15:41:36.894Z,60.03
2018-09-03T15:44:05.359Z,59.98
2018-09-03T15:46:33.722Z,60.03
2018-09-03T15:49:02.055Z,60.37
2018-09-03T15:51:30.259Z,61.43
2018-09-03T15:53:58.565Z,60.91
2018-09-03T15:56:26.785Z,59.95
2018-09-03T15:58:55.030Z,61.29
2018-09-03T16:01:23.298Z,61.18
2018-09-03T16:03:51.518Z,60.85
2018-09-03T16:06:19.820Z,59.85
2018-09-03T16:08:49.117Z,60.74
2018-09-03T16:11:17.412Z,60.86
2018-09-03T16:13:45.798Z,60.75
2018-09-03T16:16:14.050Z,61.05
2018-09-03T16:18:42.255Z,60.45
2018-09-03T16:21:10.459Z,61.31
2018-09-03T16:23:38.767Z,61.06
2018-09-03T16:26:07.013Z,60.71
2018-09-03T16:28:35.227Z,60.87
2018-09-03T16:31:03.451Z,61.75
2018-09-03T16:33:31.694Z,61.47
2018-09-03T16:36:00.035Z,61.43
2018-09-03T16:38:28.185Z,61.98
2018-09-03T16:40:56.406Z,62.60
2018-09-03T16:43:24.614Z,63.79
2018-09-03T16:45:53.058Z,65.80
2018-09-03T16:48:21.277Z,66.68
2018-09-03T16:50:49.501Z,67.45
2018-09-03T16:53:17.737Z,68.34
2018-09-03T16:55:45.951Z,68.12
2018-09-03T16:58:14.194Z,71.00
2018-09-03T17:00:42.427Z,70.55
2018-09-03T17:03:10.679Z,69.46
2018-09-03T17:05:38.953Z,69.03
2018-09-03T17:08:07.368Z,68.19
2018-09-03T17:10:35.485Z,69.83
2018-09-03T17:13:03.711Z,70.94
2018-09-03T17:15:31.935Z,68.96
2018-09-03T17:18:00.580Z,70.73
2018-09-03T17:20:28.870Z,71.13
2018-09-03T17:22:57.030Z,72.54
2018-09-03T17:25:25.234Z,72.86
2018-09-03T17:27:53.481Z,73.74
2018-09-03T17:30:21.802Z,71.80
2018-09-03T17:32:50.030Z,73.68
2018-09-03T17:35:18.252Z,73.45
2018-09-03T17:37:46.463Z,73.78
2018-09-03T17:40:14.785Z,73.35
2018-09-03T17:42:43.090Z,72.30
2018-09-03T17:45:11.429Z,73.87
2018-09-03T17:47:40.213Z,72.59
2018-09-03T17:50:08.510Z,72.42
2018-09-03T17:52:36.718Z,73.37
2018-09-03T17:55:04.974Z,72.34
2018-09-03T17:57:33.194Z,71.69
2018-09-03T18:00:01.454Z,71.65
2018-09-03T18:02:29.668Z,72.40
2018-09-03T18:04:58.085Z,73.49
2018-09-03T18:07:26.385Z,74.42
2018-09-03T18:09:54.701Z,75.37
2018-09-03T18:12:22.914Z,74.70
2018-09-03T18:14:51.133Z,74.93
2018-09-03T18:17:19.328Z,75.59
2018-09-03T18:19:47.556Z,75.06
2018-09-03T18:22:15.762Z,75.74
2018-09-03T18:24:43.996Z,75.75
2018-09-03T18:27:12.279Z,75.78
2018-09-03T18:29:40.544Z,75.65
2018-09-03T18:32:08.773Z,76.66
2018-09-03T18:34:37.003Z,76.28
2018-09-03T18:37:05.484Z,76.59
2018-09-03T18:39:33.803Z,76.86
2018-09-03T18:42:02.166Z,77.90
2018-09-03T18:44:30.350Z,78.05
2018-09-03T18:46:58.598Z,78.68
2018-09-03T18:49:26.800Z,77.87
2018-09-03T18:51:55.015Z,78.34
2018-09-03T18:54:23.285Z,79.00
2018-09-03T18:56:51.497Z,79.53
2018-09-03T18:59:19.749Z,78.08
2018-09-03T19:01:47.993Z,79.08
2018-09-03T19:04:16.273Z,79.50
2018-09-03T19:06:44.497Z,79.04
2018-09-03T19:09:12.735Z,78.46
2018-09-03T19:11:40.974Z,79.01
2018-09-03T19:14:09.565Z,78.61
2018-09-03T19:16:37.769Z,79.33
2018-09-03T19:19:06.034Z,78.28
2018-09-03T19:21:34.345Z,78.51
2018-09-03T19:24:02.546Z,79.14
2018-09-03T19:26:30.766Z,78.56
2018-09-03T19:28:58.974Z,78.54
2018-09-03T19:31:27.297Z,79.20
2018-09-03T19:33:55.525Z,78.78
2018-09-03T19:36:23.763Z,79.75
2018-09-03T19:38:53.070Z,79.50
2018-09-03T19:41:21.306Z,79.64
2018-09-03T19:43:49.520Z,79.51
2018-09-03T19:46:17.750Z,79.62
2018-09-03T19:48:45.973Z,78.91
2018-09-03T19:51:14.177Z,79.22
2018-09-03T19:53:43.426Z,80.29
2018-09-03T19:56:11.647Z,79.36
2018-09-03T19:58:39.877Z,80.12
2018-09-03T20:01:08.084Z,80.43
2018-09-03T20:03:37.197Z,80.09
2018-09-03T20:06:05.500Z,80.18
2018-09-03T20:08:34.971Z,80.89
2018-09-03T20:11:03.214Z,80.90
2018-09-03T20:13:31.826Z,79.36
2018-09-03T20:16:00.046Z,79.73
2018-09-03T20:18:28.389Z,80.26
2018-09-03T20:20:56.678Z,80.23
2018-09-03T20:23:24.969Z,81.40
2018-09-03T20:25:55.262Z,82.05
2018-09-03T20:28:24.945Z,81.17
2018-09-03T20:30:53.202Z,81.30
2018-09-03T20:33:21.720Z,81.07
2018-09-03T20:35:50.018Z,81.44
2018-09-03T20:38:19.766Z,81.17
2018-09-03T20:40:48.083Z,81.62
2018-09-03T20:43:16.372Z,83.08
2018-09-03T20:45:44.689Z,84.18
2018-09-03T20:48:13.091Z,86.24
2018-09-03T20:50:41.372Z,85.31
2018-09-03T20:53:09.595Z,84.44
2018-09-03T20:55:37.934Z,84.28
2018-09-03T20:58:06.354Z,83.06
2018-09-03T21:00:34.611Z,83.85
2018-09-03T21:03:02.881Z,83.05
2018-09-03T21:05:31.150Z,83.23
2018-09-03T21:07:59.362Z,83.90
2018-09-03T21:10:27.582Z,82.86
2018-09-03T21:12:55.830Z,83.85
2018-09-03T21:15:24.160Z,84.05
2018-09-03T21:17:53.499Z,83.83
2018-09-03T21:20:21.741Z,83.14
2018-09-03T21:22:49.959Z,84.36
2018-09-03T21:25:18.262Z,83.63
2018-09-03T21:27:46.478Z,84.22
2018-09-03T21:30:14.685Z,84.15
2018-09-03T21:32:42.930Z,84.11
2018-09-03T21:35:11.257Z,84.01
2018-09-03T21:37:39.583Z,84.16
2018-09-03T21:40:08.073Z,84.06
2018-09-03T21:42:36.350Z,84.51
2018-09-03T21:45:04.653Z,84.74
2018-09-03T21:47:32.882Z,83.13
2018-09-03T21:50:01.089Z,83.17
2018-09-03T21:52:29.346Z,83.40
2018-09-03T21:54:57.583Z,83.03
2018-09-03T21:57:25.806Z,82.84
2018-09-03T21:59:54.034Z,83.99
2018-09-03T22:02:22.627Z,82.83
2018-09-03T22:04:50.860Z,83.71
2018-09-03T22:07:19.130Z,83.13
2018-09-03T22:09:47.365Z,83.65
2018-09-03T22:12:15.642Z,83.12
2018-09-03T22:14:43.855Z,83.49
2018-09-03T22:17:12.078Z,83.25
2018-09-03T22:19:40.311Z,84.29
2018-09-03T22:22:08.688Z,85.31
2018-09-03T22:24:36.933Z,84.78
2018-09-03T22:27:06.610Z,84.45
2018-09-03T22:29:34.857Z,84.03
2018-09-03T22:32:03.119Z,83.55
2018-09-03T22:34:31.526Z,83.65
2018-09-03T22:36:59.754Z,84.00
2018-09-03T22:39:27.978Z,84.42
2018-09-03T22:41:56.207Z,84.65
2018-09-03T22:44:24.470Z,83.93
2018-09-03T22:46:52.761Z,84.32
2018-09-03T22:49:20.994Z,84.53
2018-09-03T22:51:49.266Z,84.77
2018-09-03T22:54:17.488Z,83.93
2018-09-03T22:56:45.693Z,85.06
2018-09-03T22:59:14.914Z,84.05
2018-09-03T23:01:43.210Z,83.52
2018-09-03T23:04:11.438Z,84.21
2018-09-03T23:06:39.696Z,84.30
2018-09-03T23:09:08.329Z,84.36
2018-09-03T23:11:36.593Z,84.86
2018-09-03T23:14:05.525Z,85.15
2018-09-03T23:16:33.738Z,84.40
2018-09-03T23:19:01.949Z,85.07
2018-09-03T23:21:30.189Z,84.78
2018-09-03T23:23:58.405Z,84.39
2018-09-03T23:26:26.878Z,84.52
2018-09-03T23:28:55.156Z,84.94
2018-09-03T23:31:23.430Z,85.65
2018-09-03T23:33:51.708Z,85.17
2018-09-03T23:36:19.937Z,83.96
2018-09-03T23:38:48.173Z,83.91
2018-09-03T23:41:16.406Z,84.14
2018-09-03T23:43:44.617Z,84.83
2018-09-03T23:46:12.825Z,84.34
2018-09-03T23:48:41.077Z,85.32
2018-09-03T23:51:09.355Z,85.74
2018-09-03T23:53:37.573Z,84.96
2018-09-03T23:56:05.780Z,84.46
2018-09-03T23:58:34.034Z,84.59
